createdAt,value
2023-02-22T00:00:56.468Z,83.50
2023-02-22T00:03:26.330Z,82.73
2023-02-22T00:05:59.080Z,82.36
2023-02-22T00:08:31.080Z,82.40
2023-02-22T00:10:59.987Z,83.27
2023-02-22T00:13:29.518Z,83.03
2023-02-22T00:15:57.438Z,82.71
2023-02-22T00:18:24.597Z,82.62
2023-02-22T00:20:51.593Z,83.11
2023-02-22T00:23:25.593Z,82.99
2023-02-22T00:25:52.714Z,82.87
2023-02-22T00:28:19.525Z,83.76
2023-02-22T00:30:48.488Z,83.95
2023-02-22T00:33:16.673Z,84.00
2023-02-22T00:35:46.051Z,83.41
2023-02-22T00:38:15.450Z,83.82
2023-02-22T00:40:42.722Z,83.96
2023-02-22T00:43:09.712Z,83.80
2023-02-22T00:45:37.453Z,83.61
2023-02-22T00:48:06.048Z,83.28
2023-02-22T00:50:33.634Z,83.63
2023-02-22T00:53:02.100Z,84.43
2023-02-22T00:55:32.312Z,84.47
2023-02-22T00:58:00.402Z,83.43
2023-02-22T01:00:32.716Z,84.20
2023-02-22T01:03:00.138Z,84.08
2023-02-22T01:05:29.314Z,83.21
2023-02-22T01:07:58.069Z,83.20
2023-02-22T01:10:28.051Z,83.96
2023-02-22T01:12:55.647Z,84.38
2023-02-22T01:15:25.012Z,84.07
2023-02-22T01:17:53.834Z,84.43
2023-02-22T01:20:26.380Z,83.68
2023-02-22T01:22:56.161Z,84.16
2023-02-22T01:25:28.813Z,84.11
2023-02-22T01:27:57.216Z,84.14
2023-02-22T01:30:27.760Z,84.35
2023-02-22T01:32:55.318Z,84.28
2023-02-22T01:35:26.434Z,83.95
2023-02-22T01:37:53.181Z,83.96
2023-02-22T01:40:30.026Z,83.84
2023-02-22T01:43:01.736Z,82.92
2023-02-22T01:45:32.957Z,83.64
2023-02-22T01:48:23.235Z,82.91
2023-02-22T01:51:15.163Z,82.84
2023-02-22T01:53:49.943Z,82.72
2023-02-22T01:56:19.298Z,82.86
2023-02-22T01:58:51.082Z,82.39
2023-02-22T02:01:20.271Z,82.70
2023-02-22T02:03:49.464Z,82.63
2023-02-22T02:06:18.461Z,82.49
2023-02-22T02:08:50.057Z,82.39
2023-02-22T02:11:21.455Z,82.62
2023-02-22T02:13:52.049Z,82.51
2023-02-22T02:16:19.334Z,82.08
2023-02-22T02:18:46.331Z,82.51
2023-02-22T02:21:42.542Z,82.25
2023-02-22T02:24:28.754Z,82.19
2023-02-22T02:27:01.476Z,81.96
2023-02-22T02:30:05.529Z,82.27
2023-02-22T02:32:45.083Z,82.13
2023-02-22T02:35:57.802Z,81.73
2023-02-22T02:38:45.971Z,81.68
2023-02-22T02:41:23.003Z,82.64
2023-02-22T02:44:02.956Z,82.26
2023-02-22T02:46:38.111Z,83.52
2023-02-22T02:49:22.725Z,82.96
2023-02-22T02:51:54.442Z,83.69
2023-02-22T02:54:22.974Z,84.37
2023-02-22T02:56:51.130Z,83.93
2023-02-22T02:59:27.534Z,83.71
2023-02-22T03:02:20.823Z,82.25
2023-02-22T03:04:56.620Z,82.38
2023-02-22T03:07:54.017Z,82.43
2023-02-22T03:10:56.172Z,82.64
2023-02-22T03:13:50.214Z,83.92
2023-02-22T03:16:30.021Z,83.49
2023-02-22T03:19:20.003Z,84.56
2023-02-22T03:22:05.493Z,84.69
2023-02-22T03:24:54.119Z,85.96
2023-02-22T03:27:28.286Z,86.08
2023-02-22T03:30:01.033Z,86.91
2023-02-22T03:32:33.491Z,87.04
2023-02-22T03:35:08.420Z,87.18
2023-02-22T03:37:40.663Z,87.23
2023-02-22T03:40:14.194Z,87.36
2023-02-22T03:42:48.845Z,87.12
2023-02-22T03:45:17.760Z,86.68
2023-02-22T03:48:01.551Z,86.54
2023-02-22T03:50:33.311Z,87.46
2023-02-22T03:53:00.623Z,88.10
2023-02-22T03:55:29.235Z,87.39
2023-02-22T03:57:59.443Z,86.88
2023-02-22T04:00:31.024Z,87.00
2023-02-22T04:02:59.511Z,86.03
2023-02-22T04:05:26.835Z,86.74
2023-02-22T04:07:55.851Z,86.15
2023-02-22T04:10:23.635Z,85.97
2023-02-22T04:12:51.099Z,85.96
2023-02-22T04:15:22.034Z,85.90
2023-02-22T04:17:48.747Z,86.70
2023-02-22T04:20:20.125Z,86.81
2023-02-22T04:22:47.659Z,86.87
2023-02-22T04:25:14.999Z,87.31
2023-02-22T04:27:41.895Z,87.28
2023-02-22T04:30:09.645Z,86.54
2023-02-22T04:32:36.626Z,86.71
2023-02-22T04:35:04.945Z,86.84
2023-02-22T04:37:34.870Z,87.41
2023-02-22T04:40:02.690Z,86.24
2023-02-22T04:42:29.915Z,87.71
2023-02-22T04:44:56.930Z,87.21
2023-02-22T04:47:23.980Z,86.90
2023-02-22T04:49:50.975Z,88.14
2023-02-22T04:52:17.894Z,87.94
2023-02-22T04:54:45.025Z,87.46
2023-02-22T04:57:11.859Z,87.74
2023-02-22T04:59:38.770Z,87.55
2023-02-22T05:02:06.367Z,88.10
2023-02-22T05:04:33.231Z,88.51
2023-02-22T05:07:00.455Z,88.35
2023-02-22T05:09:27.525Z,87.19
2023-02-22T05:11:54.590Z,86.20
2023-02-22T05:14:21.432Z,87.85
2023-02-22T05:16:51.600Z,87.87
2023-02-22T05:19:18.503Z,87.14
2023-02-22T05:21:45.520Z,86.78
2023-02-22T05:24:12.475Z,87.27
2023-02-22T05:26:40.626Z,87.47
2023-02-22T05:29:07.583Z,86.86
2023-02-22T05:31:34.514Z,87.11
2023-02-22T05:34:01.461Z,87.67
2023-02-22T05:36:28.606Z,86.63
2023-02-22T05:38:56.158Z,85.89
2023-02-22T05:41:23.141Z,88.21
2023-02-22T05:43:50.158Z,87.05
2023-02-22T05:46:17.128Z,87.57
2023-02-22T05:48:44.165Z,87.88
2023-02-22T05:51:11.237Z,86.58
2023-02-22T05:53:38.253Z,87.04
2023-02-22T05:56:05.663Z,87.17
2023-02-22T05:58:32.604Z,87.28
2023-02-22T06:01:01.569Z,88.30
2023-02-22T06:03:29.836Z,87.00
2023-02-22T06:05:56.736Z,87.67
2023-02-22T06:08:23.681Z,87.17
2023-02-22T06:10:50.637Z,87.41
2023-02-22T06:13:17.666Z,86.14
2023-02-22T06:15:47.450Z,86.57
2023-02-22T06:18:14.601Z,87.31
2023-02-22T06:20:41.744Z,87.79
2023-02-22T06:23:08.831Z,88.21
2023-02-22T06:25:36.637Z,88.28
2023-02-22T06:28:04.679Z,88.28
2023-02-22T06:30:31.794Z,88.07
2023-02-22T06:32:58.741Z,87.91
2023-02-22T06:35:25.770Z,87.73
2023-02-22T06:37:52.829Z,87.63
2023-02-22T06:40:20.049Z,87.22
2023-02-22T06:42:49.565Z,87.04
2023-02-22T06:45:18.566Z,87.97
2023-02-22T06:47:46.334Z,87.63
2023-02-22T06:50:24.167Z,88.24
2023-02-22T06:52:51.369Z,87.41
2023-02-22T06:55:20.836Z,87.24
2023-02-22T06:57:47.951Z,87.10
2023-02-22T07:00:20.028Z,87.56
2023-02-22T07:02:51.242Z,87.79
2023-02-22T07:05:21.120Z,87.45
2023-02-22T07:07:49.921Z,87.08
2023-02-22T07:10:26.768Z,87.46
2023-02-22T07:12:54.004Z,88.18
2023-02-22T07:15:26.223Z,86.94
2023-02-22T07:17:53.275Z,88.06
2023-02-22T07:20:21.253Z,88.09
2023-02-22T07:22:51.690Z,87.35
2023-02-22T07:25:19.450Z,87.76
2023-02-22T07:27:47.163Z,87.29
2023-02-22T07:30:25.676Z,87.89
2023-02-22T07:32:55.351Z,87.68
2023-02-22T07:35:32.874Z,88.00
2023-02-22T07:37:59.731Z,88.34
2023-02-22T07:40:27.705Z,88.39
2023-02-22T07:42:59.134Z,88.00
2023-02-22T07:45:36.639Z,87.99
2023-02-22T07:48:05.755Z,87.26
2023-02-22T07:50:34.197Z,87.01
2023-02-22T07:53:03.836Z,87.61
2023-02-22T07:55:33.076Z,86.98
2023-02-22T07:58:02.689Z,87.24
2023-02-22T08:00:39.539Z,86.68
2023-02-22T08:03:09.628Z,86.08
2023-02-22T08:05:38.367Z,86.45
2023-02-22T08:08:06.352Z,86.01
2023-02-22T08:10:35.420Z,85.54
2023-02-22T08:13:03.054Z,85.60
2023-02-22T08:15:40.855Z,85.66
2023-02-22T08:18:10.154Z,86.10
2023-02-22T08:20:38.677Z,84.91
2023-02-22T08:23:07.405Z,86.00
2023-02-22T08:25:34.743Z,86.06
2023-02-22T08:28:11.607Z,85.51
2023-02-22T08:30:40.755Z,84.73
2023-02-22T08:33:07.911Z,84.38
2023-02-22T08:35:36.684Z,84.93
2023-02-22T08:38:06.460Z,83.91
2023-02-22T08:40:36.345Z,84.26
2023-02-22T08:43:04.052Z,83.10
2023-02-22T08:45:31.370Z,82.33
2023-02-22T08:47:59.753Z,82.49
2023-02-22T08:50:29.432Z,81.57
2023-02-22T08:52:59.525Z,80.61
2023-02-22T08:55:32.478Z,79.23
2023-02-22T08:58:04.071Z,79.30
2023-02-22T09:00:36.044Z,79.49
2023-02-22T09:03:04.061Z,79.73
2023-02-22T09:05:31.687Z,80.86
2023-02-22T09:08:00.133Z,81.36
2023-02-22T09:10:29.746Z,80.79
2023-02-22T09:12:57.657Z,80.83
2023-02-22T09:15:26.258Z,80.53
2023-02-22T09:17:54.325Z,78.79
2023-02-22T09:20:22.643Z,77.41
2023-02-22T09:22:50.767Z,77.72
2023-02-22T09:25:20.761Z,75.92
2023-02-22T09:27:52.693Z,75.21
2023-02-22T09:30:32.551Z,73.07
2023-02-22T09:33:19.863Z,76.20
2023-02-22T09:35:50.190Z,76.02
2023-02-22T09:38:23.416Z,76.97
2023-02-22T09:41:12.598Z,78.59
2023-02-22T09:43:51.914Z,78.27
2023-02-22T09:46:23.485Z,77.20
2023-02-22T09:49:02.337Z,76.37
2023-02-22T09:51:43.733Z,75.19
2023-02-22T09:54:20.715Z,75.82
2023-02-22T09:56:50.730Z,75.67
2023-02-22T09:59:24.530Z,76.06
2023-02-22T10:02:00.598Z,73.80
2023-02-22T10:04:42.672Z,73.07
2023-02-22T10:07:24.553Z,75.54
2023-02-22T10:09:56.690Z,74.84
2023-02-22T10:12:32.068Z,73.88
2023-02-22T10:15:26.644Z,74.63
2023-02-22T10:18:23.041Z,74.36
2023-02-22T10:21:14.589Z,70.59
2023-02-22T10:24:10.603Z,68.98
2023-02-22T10:26:42.562Z,70.04
2023-02-22T10:29:37.452Z,69.98
2023-02-22T10:32:06.092Z,71.27
2023-02-22T10:34:41.560Z,71.34
2023-02-22T10:37:25.053Z,72.03
2023-02-22T10:40:05.606Z,71.32
2023-02-22T10:42:35.761Z,71.00
2023-02-22T10:45:02.870Z,71.01
2023-02-22T10:47:30.286Z,70.73
2023-02-22T10:50:00.651Z,70.52
2023-02-22T10:52:34.209Z,70.56
2023-02-22T10:55:14.467Z,70.93
2023-02-22T10:57:47.595Z,70.44
2023-02-22T11:00:37.668Z,70.31
2023-02-22T11:03:24.174Z,69.68
2023-02-22T11:05:52.768Z,68.47
2023-02-22T11:08:22.568Z,68.97
2023-02-22T11:10:55.492Z,66.99
2023-02-22T11:13:29.541Z,62.20
2023-02-22T11:16:00.523Z,58.33
2023-02-22T11:18:37.521Z,56.01
2023-02-22T11:21:11.797Z,60.02
2023-02-22T11:23:44.330Z,61.64
2023-02-22T11:26:14.880Z,63.86
2023-02-22T11:28:49.644Z,64.06
2023-02-22T11:31:29.162Z,66.06
2023-02-22T11:33:59.385Z,66.28
2023-02-22T11:36:41.265Z,67.89
2023-02-22T11:39:32.656Z,68.28
2023-02-22T11:42:20.723Z,69.66
2023-02-22T11:44:47.767Z,69.08
2023-02-22T11:47:14.699Z,68.31
2023-02-22T11:49:45.997Z,67.09
2023-02-22T11:52:22.422Z,64.82
2023-02-22T11:55:36.393Z,64.26
2023-02-22T11:58:43.632Z,63.16
2023-02-22T12:01:28.719Z,63.43
2023-02-22T12:04:07.662Z,62.75
2023-02-22T12:06:45.688Z,61.68
2023-02-22T12:09:28.334Z,60.97
2023-02-22T12:12:21.345Z,61.46
2023-02-22T12:14:57.076Z,62.41
2023-02-22T12:17:35.181Z,63.73
2023-02-22T12:20:15.680Z,64.31
2023-02-22T12:22:55.403Z,65.20
2023-02-22T12:25:29.825Z,64.00
2023-02-22T12:28:00.948Z,64.48
2023-02-22T12:30:32.170Z,63.01
2023-02-22T12:33:06.136Z,61.80
2023-02-22T12:35:37.412Z,63.63
2023-02-22T12:38:24.002Z,62.83
2023-02-22T12:41:00.425Z,63.19
2023-02-22T12:43:41.477Z,64.69
2023-02-22T12:46:37.635Z,65.05
2023-02-22T12:49:14.141Z,64.04
2023-02-22T12:52:15.931Z,64.26
2023-02-22T12:54:54.093Z,63.93
2023-02-22T12:57:28.580Z,63.58
2023-02-22T13:00:03.705Z,64.15
2023-02-22T13:02:42.119Z,63.50
2023-02-22T13:05:15.692Z,64.47
2023-02-22T13:07:52.995Z,63.71
2023-02-22T13:10:38.526Z,63.81
2023-02-22T13:13:31.653Z,62.34
2023-02-22T13:16:24.659Z,63.06
2023-02-22T13:19:23.996Z,63.13
2023-02-22T13:22:03.048Z,62.38
2023-02-22T13:24:56.911Z,62.95
2023-02-22T13:27:26.215Z,63.79
2023-02-22T13:29:59.512Z,63.11
2023-02-22T13:32:37.128Z,63.29
2023-02-22T13:35:45.142Z,63.03
2023-02-22T13:38:33.649Z,63.97
2023-02-22T13:41:15.508Z,65.51
2023-02-22T13:44:29.101Z,65.00
2023-02-22T13:47:20.047Z,65.65
2023-02-22T13:50:13.258Z,66.15
2023-02-22T13:52:41.524Z,65.52
2023-02-22T13:55:18.383Z,66.81
2023-02-22T13:57:49.924Z,66.44
2023-02-22T14:00:21.063Z,65.61
2023-02-22T14:03:01.768Z,66.90
2023-02-22T14:05:46.877Z,66.86
2023-02-22T14:08:19.904Z,67.14
2023-02-22T14:10:52.890Z,67.09
2023-02-22T14:13:22.823Z,67.32
2023-02-22T14:16:01.428Z,67.30
2023-02-22T14:18:51.112Z,67.87
2023-02-22T14:21:21.258Z,68.35
2023-02-22T14:23:53.734Z,68.87
2023-02-22T14:26:32.935Z,68.62
2023-02-22T14:29:22.108Z,68.57
2023-02-22T14:31:51.854Z,69.03
2023-02-22T14:34:37.316Z,68.52
2023-02-22T14:37:12.306Z,69.24
2023-02-22T14:40:13.238Z,68.09
2023-02-22T14:42:48.240Z,68.91
2023-02-22T14:45:26.911Z,69.62
2023-02-22T14:48:14.987Z,70.23
2023-02-22T14:50:43.998Z,70.05
2023-02-22T14:53:13.279Z,69.72
2023-02-22T14:56:02.763Z,70.03
2023-02-22T14:58:48.011Z,70.80
2023-02-22T15:01:49.129Z,70.21
2023-02-22T15:04:34.583Z,70.91
2023-02-22T15:07:09.850Z,70.81
2023-02-22T15:09:37.885Z,70.45
2023-02-22T15:12:04.979Z,70.26
2023-02-22T15:14:38.227Z,70.68
2023-02-22T15:17:19.992Z,71.38
2023-02-22T15:19:51.705Z,70.80
2023-02-22T15:22:23.488Z,71.43
2023-02-22T15:25:06.674Z,71.56
2023-02-22T15:27:38.061Z,72.09
2023-02-22T15:30:29.526Z,72.36
2023-02-22T15:33:04.236Z,71.82
2023-02-22T15:35:33.884Z,72.13
2023-02-22T15:38:06.555Z,72.05
2023-02-22T15:40:35.274Z,72.59
2023-02-22T15:43:09.268Z,73.05
2023-02-22T15:45:43.301Z,73.08
2023-02-22T15:48:11.811Z,73.26
2023-02-22T15:50:39.540Z,72.79
2023-02-22T15:53:33.530Z,73.92
2023-02-22T15:56:03.513Z,72.93
2023-02-22T15:58:30.496Z,73.32
2023-02-22T16:01:04.080Z,74.33
2023-02-22T16:03:48.232Z,73.50
2023-02-22T16:06:37.909Z,73.70
2023-02-22T16:09:09.191Z,74.06
2023-02-22T16:11:44.234Z,74.23
2023-02-22T16:14:25.704Z,74.54
2023-02-22T16:17:31.102Z,74.10
2023-02-22T16:20:21.690Z,74.40
2023-02-22T16:22:49.987Z,74.79
2023-02-22T16:25:19.906Z,74.68
2023-02-22T16:27:53.019Z,74.86
2023-02-22T16:30:40.691Z,74.30
2023-02-22T16:33:13.865Z,75.34
2023-02-22T16:35:43.625Z,76.26
2023-02-22T16:38:17.202Z,76.12
2023-02-22T16:40:55.906Z,76.79
2023-02-22T16:43:31.028Z,76.65
2023-02-22T16:45:58.375Z,76.52
2023-02-22T16:48:27.590Z,77.16
2023-02-22T16:50:57.007Z,76.77
2023-02-22T16:53:26.807Z,76.10
2023-02-22T16:56:04.011Z,76.10
2023-02-22T16:58:37.394Z,76.34
2023-02-22T17:01:04.338Z,76.72
2023-02-22T17:03:31.430Z,75.81
2023-02-22T17:05:58.604Z,77.07
2023-02-22T17:08:25.642Z,77.64
2023-02-22T17:10:56.927Z,77.84
2023-02-22T17:13:27.265Z,77.49
2023-02-22T17:15:57.395Z,77.94
2023-02-22T17:18:28.918Z,78.31
2023-02-22T17:20:56.293Z,78.90
2023-02-22T17:23:28.032Z,78.47
2023-02-22T17:25:57.419Z,78.30
2023-02-22T17:28:25.103Z,78.16
2023-02-22T17:31:00.778Z,78.56
2023-02-22T17:33:34.512Z,77.42
2023-02-22T17:36:03.215Z,77.28
2023-02-22T17:38:31.191Z,77.65
2023-02-22T17:41:01.660Z,79.20
2023-02-22T17:43:29.655Z,79.36
2023-02-22T17:45:57.482Z,79.90
2023-02-22T17:48:24.717Z,79.30
2023-02-22T17:50:53.268Z,80.17
2023-02-22T17:53:23.052Z,79.62
2023-02-22T17:55:50.407Z,79.91
2023-02-22T17:58:18.249Z,79.38
2023-02-22T18:00:50.854Z,80.08
2023-02-22T18:03:21.947Z,80.20
2023-02-22T18:05:51.019Z,80.67
2023-02-22T18:08:18.185Z,80.79
2023-02-22T18:10:46.019Z,81.07
2023-02-22T18:13:16.969Z,80.56
2023-02-22T18:15:45.581Z,81.14
2023-02-22T18:18:13.994Z,79.49
2023-02-22T18:20:45.580Z,79.81
2023-02-22T18:23:19.884Z,79.82
2023-02-22T18:26:09.243Z,80.17
2023-02-22T18:28:37.811Z,80.35
2023-02-22T18:31:16.569Z,81.31
2023-02-22T18:33:49.438Z,81.96
2023-02-22T18:36:23.271Z,81.85
2023-02-22T18:38:52.268Z,81.04
2023-02-22T18:41:21.836Z,80.82
2023-02-22T18:43:51.005Z,81.78
2023-02-22T18:46:22.304Z,81.96
2023-02-22T18:48:54.541Z,81.26
2023-02-22T18:51:21.458Z,82.26
2023-02-22T18:53:50.148Z,82.06
2023-02-22T18:56:22.233Z,81.25
2023-02-22T18:58:54.287Z,81.81
2023-02-22T19:01:22.387Z,82.88
2023-02-22T19:03:49.809Z,83.26
2023-02-22T19:06:18.763Z,84.19
2023-02-22T19:08:47.187Z,83.90
2023-02-22T19:11:19.362Z,83.97
2023-02-22T19:13:48.098Z,83.10
2023-02-22T19:16:20.163Z,84.09
2023-02-22T19:18:48.814Z,82.31
2023-02-22T19:21:16.683Z,82.88
2023-02-22T19:23:46.826Z,82.25
2023-02-22T19:26:21.081Z,81.87
2023-02-22T19:28:51.956Z,83.21
2023-02-22T19:31:31.032Z,81.69
2023-02-22T19:34:04.279Z,82.41
2023-02-22T19:36:32.215Z,83.45
2023-02-22T19:39:02.147Z,82.94
2023-02-22T19:41:29.660Z,83.20
2023-02-22T19:43:56.942Z,83.36
2023-02-22T19:46:25.203Z,84.70
2023-02-22T19:48:53.810Z,84.07
2023-02-22T19:51:25.482Z,83.99
2023-02-22T19:53:55.797Z,83.89
2023-02-22T19:56:31.273Z,84.58
2023-02-22T19:59:09.519Z,85.05
2023-02-22T20:01:37.203Z,85.04
2023-02-22T20:04:07.088Z,85.45
2023-02-22T20:06:40.411Z,85.87
2023-02-22T20:09:14.161Z,85.54
2023-02-22T20:11:41.055Z,86.23
2023-02-22T20:14:07.873Z,85.77
2023-02-22T20:16:35.937Z,86.59
2023-02-22T20:19:02.876Z,86.11
2023-02-22T20:21:32.468Z,86.13
2023-02-22T20:24:01.564Z,85.87
2023-02-22T20:26:31.045Z,86.87
2023-02-22T20:28:59.086Z,85.50
2023-02-22T20:31:26.575Z,85.97
2023-02-22T20:33:55.836Z,85.79
2023-02-22T20:36:22.808Z,86.03
2023-02-22T20:38:54.275Z,86.25
2023-02-22T20:41:33.522Z,85.67
2023-02-22T20:44:02.033Z,86.31
2023-02-22T20:46:36.444Z,85.93
2023-02-22T20:49:07.557Z,85.77
2023-02-22T20:51:35.620Z,85.52
2023-02-22T20:54:02.715Z,85.77
2023-02-22T20:56:31.365Z,86.43
2023-02-22T20:59:02.134Z,85.42
2023-02-22T21:01:29.891Z,85.83
2023-02-22T21:04:04.656Z,86.39
2023-02-22T21:06:31.368Z,86.90
2023-02-22T21:09:00.359Z,87.06
2023-02-22T21:11:30.792Z,86.74
2023-02-22T21:13:58.154Z,86.98
2023-02-22T21:16:36.415Z,87.38
2023-02-22T21:19:06.487Z,87.36
2023-02-22T21:21:36.724Z,86.44
2023-02-22T21:24:03.722Z,87.53
2023-02-22T21:26:32.397Z,86.33
2023-02-22T21:29:02.171Z,87.00
2023-02-22T21:31:29.692Z,87.11
2023-02-22T21:33:58.768Z,88.24
2023-02-22T21:36:27.475Z,87.59
2023-02-22T21:39:01.030Z,86.89
2023-02-22T21:41:32.386Z,86.74
2023-02-22T21:43:59.971Z,86.41
2023-02-22T21:46:31.868Z,85.28
2023-02-22T21:48:59.164Z,86.25
2023-02-22T21:51:33.389Z,86.50
2023-02-22T21:54:03.480Z,86.61
2023-02-22T21:56:32.568Z,86.43
2023-02-22T21:59:05.987Z,86.68
2023-02-22T22:01:36.509Z,87.10
2023-02-22T22:04:05.112Z,86.12
2023-02-22T22:06:34.679Z,86.42
2023-02-22T22:09:02.093Z,86.87
2023-02-22T22:11:30.814Z,86.44
2023-02-22T22:13:59.828Z,86.15
2023-02-22T22:16:31.969Z,86.84
2023-02-22T22:18:58.903Z,86.75
2023-02-22T22:21:26.292Z,86.52
2023-02-22T22:23:57.608Z,87.07
2023-02-22T22:26:25.973Z,86.97
2023-02-22T22:28:57.900Z,87.13
2023-02-22T22:31:26.718Z,86.69
2023-02-22T22:33:55.601Z,87.18
2023-02-22T22:36:23.790Z,87.42
2023-02-22T22:38:52.835Z,86.60
2023-02-22T22:41:22.037Z,86.62
2023-02-22T22:43:51.347Z,87.13
2023-02-22T22:46:18.745Z,86.80
2023-02-22T22:48:47.400Z,87.04
2023-02-22T22:51:21.903Z,86.85
2023-02-22T22:53:50.319Z,86.96
2023-02-22T22:56:29.441Z,86.79
2023-02-22T22:58:58.460Z,86.67
2023-02-22T23:01:28.493Z,85.90
2023-02-22T23:04:02.216Z,87.54
2023-02-22T23:06:40.998Z,86.62
2023-02-22T23:09:18.945Z,87.34
2023-02-22T23:11:51.373Z,86.52
2023-02-22T23:14:22.439Z,86.91
2023-02-22T23:16:51.308Z,86.66
2023-02-22T23:19:22.104Z,86.22
2023-02-22T23:21:50.573Z,86.05
2023-02-22T23:24:21.180Z,86.55
2023-02-22T23:26:49.605Z,85.38
2023-02-22T23:29:23.362Z,86.05
2023-02-22T23:31:50.809Z,85.79
2023-02-22T23:34:21.355Z,85.71
2023-02-22T23:36:48.756Z,86.43
2023-02-22T23:39:20.779Z,86.78
2023-02-22T23:41:56.366Z,87.12
2023-02-22T23:44:23.360Z,86.21
2023-02-22T23:46:55.616Z,86.78
2023-02-22T23:49:25.860Z,86.82
2023-02-22T23:51:52.948Z,86.87
2023-02-22T23:54:21.476Z,86.83
2023-02-22T23:56:58.412Z,86.15
2023-02-22T23:59:27.096Z,86.62
